Time;durP1;ratioP1;P1;durP2;ratioP2;P2;SDS_P1;SDS_P2;PMS_P1;PMS_P2;Temp;Humidity;BMP_temperature;BMP_pressure;BME280_temperature;BME280_humidity;BME280_pressure;Samples;Min_cycle;Max_cycle;Signal;HPM_P1;HPM_P2
2022/06/29 00:00:36;;;;;;;4.70;2.47;;;16.20;99.90;;;;;;5057800;28;20043;-73
2022/06/29 00:03:02;;;;;;;9.50;3.05;;;16.60;99.90;;;;;;5083303;28;20040;-73
2022/06/29 00:05:29;;;;;;;4.25;2.40;;;16.60;99.90;;;;;;5086465;28;20040;-73
2022/06/29 00:07:55;;;;;;;5.20;2.22;;;16.60;99.90;;;;;;5080893;28;20059;-74
2022/06/29 00:10:21;;;;;;;5.00;2.60;;;16.60;99.90;;;;;;5084118;28;20040;-74
2022/06/29 00:12:47;;;;;;;6.38;2.88;;;16.60;99.90;;;;;;5082998;28;20498;-74
2022/06/29 00:15:15;;;;;;;4.43;2.60;;;16.60;99.90;;;;;;5049256;28;20435;-74
2022/06/29 00:17:41;;;;;;;7.38;2.38;;;16.60;99.90;;;;;;5101759;28;20147;-73
2022/06/29 00:20:10;;;;;;;5.30;2.58;;;16.50;99.90;;;;;;5082223;28;20483;-74
2022/06/29 00:22:36;;;;;;;4.30;2.33;;;16.50;99.90;;;;;;5085204;28;20039;-73
2022/06/29 00:25:02;;;;;;;5.00;2.38;;;16.50;99.90;;;;;;5083804;28;20076;-73
2022/06/29 00:27:29;;;;;;;3.88;2.65;;;16.50;99.90;;;;;;5068414;28;20510;-73
2022/06/29 00:29:55;;;;;;;3.13;2.22;;;16.50;99.90;;;;;;5066290;28;20495;-72
2022/06/29 00:32:20;;;;;;;5.25;2.50;;;16.40;99.90;;;;;;5097183;28;20039;-73
2022/06/29 00:34:46;;;;;;;5.35;2.35;;;16.40;99.90;;;;;;5089750;28;20369;-73
2022/06/29 00:37:12;;;;;;;6.97;2.20;;;16.40;99.90;;;;;;5071335;28;20484;-73
2022/06/29 00:39:37;;;;;;;4.50;2.40;;;17.30;99.90;;;;;;5088787;28;20043;-73
2022/06/29 00:42:03;;;;;;;8.27;2.70;;;16.40;99.90;;;;;;5070575;28;20518;-73
2022/06/29 00:44:29;;;;;;;8.25;2.70;;;16.30;99.90;;;;;;5089697;28;20039;-73
2022/06/29 00:46:58;;;;;;;7.22;2.85;;;16.70;99.90;;;;;;5068841;28;20048;-73
2022/06/29 00:49:26;;;;;;;7.05;2.80;;;16.30;99.90;;;;;;5070255;28;20036;-73
2022/06/29 00:52:04;;;;;;;5.10;2.88;;;16.20;99.90;;;;;;5086483;28;20050;-73
2022/06/29 00:54:58;;;;;;;6.60;2.97;;;16.30;99.90;;;;;;5054641;28;20058;-73
2022/06/29 00:57:25;;;;;;;6.63;2.80;;;16.20;99.90;;;;;;5039833;28;20148;-73
2022/06/29 00:59:53;;;;;;;15.73;3.50;;;16.20;99.90;;;;;;5071038;28;20040;-74
2022/06/29 01:02:21;;;;;;;5.93;2.83;;;16.10;99.90;;;;;;5085075;28;20467;-73
2022/06/29 01:04:49;;;;;;;7.35;3.00;;;16.10;99.90;;;;;;5068520;28;20149;-73
2022/06/29 01:07:17;;;;;;;5.55;3.03;;;16.10;99.90;;;;;;5086565;28;20047;-73
2022/06/29 01:09:43;;;;;;;5.53;3.00;;;16.40;99.90;;;;;;5069274;28;20051;-73
2022/06/29 01:12:09;;;;;;;6.00;2.58;;;16.00;99.90;;;;;;5070153;28;20075;-72
2022/06/29 01:14:35;;;;;;;5.07;3.28;;;16.00;99.90;;;;;;5071596;28;20127;-73
2022/06/29 01:17:01;;;;;;;5.75;3.08;;;16.00;99.90;;;;;;5067903;28;20036;-72
2022/06/29 01:19:27;;;;;;;10.50;3.42;;;16.00;99.90;;;;;;5085709;28;20467;-73
2022/06/29 01:21:54;;;;;;;5.97;3.28;;;15.90;99.90;;;;;;5052980;28;20089;-73
2022/06/29 01:24:22;;;;;;;6.20;3.25;;;15.90;99.90;;;;;;5088490;28;20040;-73
2022/06/29 01:26:48;;;;;;;7.97;3.55;;;15.90;99.90;;;;;;5069011;28;20051;-73
2022/06/29 01:29:15;;;;;;;8.43;3.00;;;15.90;99.90;;;;;;5053175;28;20052;-73
2022/06/29 01:31:42;;;;;;;6.57;3.20;;;15.90;99.90;;;;;;5084913;28;20051;-73
2022/06/29 01:34:13;;;;;;;9.98;3.72;;;15.90;99.90;;;;;;5086588;28;20142;-74
2022/06/29 01:36:39;;;;;;;5.82;3.75;;;16.00;99.90;;;;;;5085309;28;20039;-73
2022/06/29 01:39:05;;;;;;;5.72;3.00;;;16.00;99.90;;;;;;5051466;28;20336;-74
2022/06/29 01:41:30;;;;;;;8.25;3.50;;;16.00;99.90;;;;;;5087131;28;20401;-74
2022/06/29 01:43:56;;;;;;;5.97;3.83;;;16.00;99.90;;;;;;5086418;28;20105;-73
2022/06/29 01:46:22;;;;;;;7.15;3.70;;;16.00;99.90;;;;;;5085259;28;20515;-73
2022/06/29 01:48:47;;;;;;;6.90;3.33;;;16.10;99.90;;;;;;5084886;28;20047;-74
2022/06/29 01:51:13;;;;;;;8.73;3.55;;;16.00;99.90;;;;;;5064979;28;20066;-73
2022/06/29 01:53:38;;;;;;;5.63;3.33;;;16.00;99.90;;;;;;5062868;28;20047;-72
2022/06/29 01:56:06;;;;;;;7.68;3.85;;;16.10;99.90;;;;;;5085363;28;20464;-74
2022/06/29 01:58:32;;;;;;;5.15;3.28;;;16.00;99.90;;;;;;5071134;28;20044;-73
2022/06/29 02:00:57;;;;;;;5.35;3.15;;;16.10;99.90;;;;;;5062875;28;20935;-74
2022/06/29 02:03:23;;;;;;;6.68;4.03;;;17.10;99.90;;;;;;5085833;28;20060;-74
2022/06/29 02:05:49;;;;;;;8.88;3.60;;;16.10;99.90;;;;;;5053571;28;20494;-73
2022/06/29 02:08:14;;;;;;;7.00;3.05;;;16.30;99.90;;;;;;5086973;28;20047;-73
2022/06/29 02:10:40;;;;;;;7.32;3.60;;;16.20;99.90;;;;;;5066647;28;20035;-74
2022/06/29 02:13:06;;;;;;;4.82;3.13;;;16.10;99.90;;;;;;5087822;28;20032;-73
2022/06/29 02:15:31;;;;;;;8.32;3.95;;;16.20;99.90;;;;;;5084598;28;20040;-73
2022/06/29 02:18:00;;;;;;;6.78;3.30;;;16.20;99.90;;;;;;5085753;28;20123;-73
2022/06/29 02:20:25;;;;;;;4.22;3.20;;;16.20;99.90;;;;;;5083859;28;20036;-73
2022/06/29 02:22:51;;;;;;;7.47;3.53;;;16.10;99.90;;;;;;5085664;28;20487;-73
2022/06/29 02:25:17;;;;;;;6.28;2.85;;;16.20;99.90;;;;;;5084442;28;20058;-72
2022/06/29 02:27:45;;;;;;;6.25;2.97;;;16.20;99.90;;;;;;5068636;28;20058;-73
2022/06/29 02:30:13;;;;;;;8.65;3.80;;;16.20;99.90;;;;;;5068116;28;20068;-73
2022/06/29 02:35:28;;;;;;;9.93;3.58;;;16.20;99.90;;;;;;5064650;28;20511;-73
2022/06/29 02:37:54;;;;;;;6.97;3.75;;;16.20;99.90;;;;;;5069436;28;20040;-73
2022/06/29 02:40:20;;;;;;;5.30;3.05;;;16.00;99.90;;;;;;5069223;28;20505;-74
2022/06/29 02:42:45;;;;;;;6.00;3.60;;;16.20;99.90;;;;;;5086216;28;20032;-74
2022/06/29 02:45:11;;;;;;;9.27;3.70;;;16.20;99.90;;;;;;5053937;28;20075;-73
2022/06/29 02:47:37;;;;;;;4.75;2.75;;;16.20;99.90;;;;;;5087969;28;20481;-73
2022/06/29 02:50:03;;;;;;;8.43;3.47;;;16.20;99.90;;;;;;5084891;28;20507;-73
2022/06/29 02:52:28;;;;;;;3.85;3.50;;;16.10;99.90;;;;;;5069028;28;20078;-73
2022/06/29 02:54:54;;;;;;;9.02;3.78;;;16.10;99.90;;;;;;5087117;28;20040;-73
2022/06/29 02:57:20;;;;;;;4.78;3.80;;;16.10;99.90;;;;;;5088114;28;20133;-73
2022/06/29 02:59:46;;;;;;;5.43;3.20;;;16.90;99.90;;;;;;5066868;28;20075;-73
2022/06/29 03:02:12;;;;;;;6.25;3.22;;;16.10;99.90;;;;;;5074379;28;20067;-73
2022/06/29 03:04:37;;;;;;;8.98;3.42;;;16.10;99.90;;;;;;5086109;28;20071;-73
2022/06/29 03:07:03;;;;;;;6.93;3.85;;;16.70;99.90;;;;;;5065889;28;20689;-73
2022/06/29 03:09:29;;;;;;;8.40;3.38;;;16.00;99.90;;;;;;5084846;28;20036;-73
2022/06/29 03:11:54;;;;;;;3.67;3.17;;;16.00;99.90;;;;;;5067397;28;20063;-73
2022/06/29 03:14:20;;;;;;;7.55;3.80;;;16.00;99.90;;;;;;5086960;28;20044;-73
2022/06/29 03:16:46;;;;;;;4.45;3.55;;;16.00;99.90;;;;;;5066149;28;20164;-73
2022/06/29 03:19:11;;;;;;;5.75;3.63;;;16.40;99.90;;;;;;5066903;28;20511;-73
2022/06/29 03:21:37;;;;;;;4.57;3.40;;;15.90;99.90;;;;;;5085123;28;20040;-73
2022/06/29 03:24:03;;;;;;;5.47;3.50;;;15.90;99.90;;;;;;5084376;28;20052;-73
2022/06/29 03:26:30;;;;;;;6.82;3.53;;;15.90;99.90;;;;;;5069022;28;20048;-73
2022/06/29 03:28:56;;;;;;;6.00;3.58;;;15.90;99.90;;;;;;5085224;28;20131;-74
2022/06/29 03:31:22;;;;;;;5.13;3.17;;;15.90;99.90;;;;;;5083659;28;20132;-73
2022/06/29 03:33:48;;;;;;;5.50;3.25;;;15.80;99.90;;;;;;5064516;28;21088;-74
2022/06/29 03:36:14;;;;;;;8.02;3.85;;;15.90;99.90;;;;;;5081633;28;20169;-74
2022/06/29 03:38:40;;;;;;;4.90;3.33;;;16.80;99.90;;;;;;5045309;28;20037;-73
2022/06/29 03:41:05;;;;;;;4.43;3.67;;;15.80;99.90;;;;;;5085975;28;20368;-74
2022/06/29 03:43:31;;;;;;;5.45;3.60;;;16.70;99.90;;;;;;5051054;28;20036;-74
2022/06/29 03:45:57;;;;;;;4.68;3.83;;;15.70;99.90;;;;;;5066629;28;20522;-74
2022/06/29 03:48:23;;;;;;;6.68;4.55;;;15.80;99.90;;;;;;5067276;28;20051;-74
2022/06/29 03:50:49;;;;;;;7.28;4.05;;;15.80;99.90;;;;;;5068658;28;20055;-74
2022/06/29 03:53:15;;;;;;;6.05;4.40;;;15.80;99.90;;;;;;5084665;28;20032;-74
2022/06/29 03:55:41;;;;;;;4.90;3.83;;;15.70;99.90;;;;;;5082970;28;20119;-74
2022/06/29 03:58:07;;;;;;;8.50;3.70;;;15.70;99.90;;;;;;5051664;28;20040;-74
2022/06/29 04:00:33;;;;;;;5.15;3.42;;;15.70;99.90;;;;;;5068909;28;20047;-74
2022/06/29 04:02:58;;;;;;;8.85;3.95;;;15.70;99.90;;;;;;5084873;28;20048;-74
2022/06/29 04:05:24;;;;;;;4.20;3.60;;;15.90;99.90;;;;;;5091399;28;20040;-74
2022/06/29 04:07:50;;;;;;;4.13;3.80;;;15.90;99.90;;;;;;5071592;28;20109;-73
2022/06/29 04:10:16;;;;;;;4.60;3.95;;;15.70;99.90;;;;;;5070297;28;20028;-72
2022/06/29 04:12:41;;;;;;;6.00;3.88;;;15.60;99.90;;;;;;5070223;28;20044;-72
2022/06/29 04:15:07;;;;;;;4.28;3.83;;;16.00;99.90;;;;;;5088495;28;20032;-73
2022/06/29 04:17:34;;;;;;;5.07;3.58;;;15.70;99.90;;;;;;5046717;28;20044;-74
2022/06/29 04:20:00;;;;;;;6.03;4.03;;;15.70;99.90;;;;;;5067286;28;20288;-74
2022/06/29 04:22:25;;;;;;;5.13;3.85;;;15.80;99.90;;;;;;5066254;28;20137;-74
2022/06/29 04:24:51;;;;;;;4.32;3.83;;;15.70;99.90;;;;;;5085997;28;20089;-73
2022/06/29 04:27:21;;;;;;;5.78;3.95;;;15.70;99.90;;;;;;5072337;28;20048;-74
2022/06/29 04:29:47;;;;;;;6.28;4.28;;;15.80;99.90;;;;;;5064826;28;20516;-74
2022/06/29 04:32:12;;;;;;;5.47;3.78;;;15.80;99.90;;;;;;5055053;28;20043;-74
2022/06/29 04:34:38;;;;;;;3.83;3.53;;;15.70;99.90;;;;;;5069926;28;20055;-74
2022/06/29 04:37:04;;;;;;;4.07;3.60;;;15.70;99.90;;;;;;5051975;28;20525;-74
2022/06/29 04:39:29;;;;;;;4.25;3.85;;;15.80;99.90;;;;;;5071474;28;20502;-74
2022/06/29 04:41:55;;;;;;;4.60;4.10;;;15.80;99.90;;;;;;5070755;28;20046;-74
2022/06/29 04:44:21;;;;;;;7.63;3.83;;;15.80;99.90;;;;;;5085287;28;20039;-74
2022/06/29 04:46:47;;;;;;;7.50;3.97;;;16.60;99.90;;;;;;5088875;28;20039;-74
2022/06/29 04:49:13;;;;;;;4.80;4.32;;;15.90;99.90;;;;;;5086852;28;20043;-74
2022/06/29 04:51:38;;;;;;;7.18;4.13;;;15.90;99.90;;;;;;5089341;28;20068;-72
2022/06/29 04:54:07;;;;;;;5.32;3.60;;;16.40;99.90;;;;;;5084450;28;20411;-75
2022/06/29 04:56:38;;;;;;;4.80;4.30;;;15.90;99.90;;;;;;5078289;28;20044;-74
2022/06/29 04:59:03;;;;;;;5.20;4.22;;;15.80;99.90;;;;;;5089702;28;20040;-74
2022/06/29 05:01:30;;;;;;;6.90;4.00;;;15.90;99.90;;;;;;5055641;28;20036;-73
2022/06/29 05:03:59;;;;;;;4.50;4.13;;;15.90;99.90;;;;;;5068802;28;20511;-74
2022/06/29 05:06:25;;;;;;;6.43;3.90;;;16.90;99.90;;;;;;5088133;28;20043;-74
2022/06/29 05:08:51;;;;;;;4.90;3.80;;;15.90;99.90;;;;;;5073416;28;20032;-74
2022/06/29 05:11:18;;;;;;;5.85;4.03;;;16.00;99.90;;;;;;5090043;28;20093;-74
2022/06/29 05:13:44;;;;;;;6.82;4.28;;;16.00;99.90;;;;;;5069570;28;20544;-74
2022/06/29 05:16:10;;;;;;;5.10;4.65;;;17.00;99.90;;;;;;5060124;28;20042;-74
2022/06/29 05:18:37;;;;;;;5.43;4.93;;;16.10;99.90;;;;;;5084606;28;20036;-73
2022/06/29 05:21:06;;;;;;;6.13;4.28;;;16.10;99.90;;;;;;5083607;28;20471;-74
2022/06/29 05:23:32;;;;;;;5.82;4.40;;;16.10;99.90;;;;;;5085885;28;20051;-73
2022/06/29 05:25:58;;;;;;;4.65;4.13;;;16.30;99.90;;;;;;5066379;28;20055;-74
2022/06/29 05:28:27;;;;;;;4.78;4.38;;;16.20;99.90;;;;;;5067048;28;20388;-74
2022/06/29 05:30:53;;;;;;;5.75;4.63;;;16.20;99.90;;;;;;5065630;28;20113;-74
2022/06/29 05:33:19;;;;;;;7.32;4.90;;;16.20;99.90;;;;;;5071447;28;20429;-74
2022/06/29 05:35:45;;;;;;;6.18;4.88;;;16.20;99.90;;;;;;5074833;28;20062;-74
2022/06/29 05:38:10;;;;;;;8.10;4.25;;;16.20;99.90;;;;;;5085776;28;20391;-74
2022/06/29 05:40:36;;;;;;;5.20;4.45;;;16.30;99.90;;;;;;5065302;28;20040;-74
2022/06/29 05:43:03;;;;;;;5.47;4.45;;;16.30;99.90;;;;;;5066962;28;20036;-73
2022/06/29 05:45:29;;;;;;;6.28;4.63;;;16.30;99.90;;;;;;5081230;28;20047;-74
2022/06/29 05:47:55;;;;;;;4.93;4.53;;;17.10;99.90;;;;;;5082309;28;20516;-74
2022/06/29 05:50:22;;;;;;;5.07;4.55;;;17.30;99.90;;;;;;5058541;28;20032;-74
2022/06/29 05:52:48;;;;;;;4.75;4.28;;;16.40;99.90;;;;;;5070778;28;20035;-74
2022/06/29 05:55:14;;;;;;;5.32;4.53;;;16.90;99.90;;;;;;5067378;28;20036;-75
2022/06/29 05:57:40;;;;;;;5.38;4.70;;;16.50;99.90;;;;;;5079393;28;20037;-73
2022/06/29 06:00:07;;;;;;;5.03;4.15;;;16.60;99.90;;;;;;5080054;28;20447;-73
2022/06/29 06:02:32;;;;;;;4.32;4.03;;;16.70;99.90;;;;;;5064129;28;20051;-74
2022/06/29 06:04:58;;;;;;;7.55;3.47;;;17.70;99.90;;;;;;5055801;28;20344;-73
2022/06/29 06:07:24;;;;;;;7.60;3.65;;;16.80;99.90;;;;;;5084499;28;20376;-73
2022/06/29 06:09:49;;;;;;;5.47;3.75;;;16.80;99.90;;;;;;5068425;28;20040;-73
2022/06/29 06:12:16;;;;;;;5.88;3.75;;;18.20;99.90;;;;;;5088028;28;20047;-74
2022/06/29 06:14:44;;;;;;;4.93;3.25;;;16.30;99.90;;;;;;5050331;28;20289;-74
2022/06/29 06:17:10;;;;;;;4.93;3.40;;;17.30;99.90;;;;;;5088402;28;20102;-75
2022/06/29 06:19:38;;;;;;;5.90;3.17;;;17.40;99.90;;;;;;5051296;28;20048;-75
2022/06/29 06:22:03;;;;;;;4.68;3.17;;;17.20;99.90;;;;;;5068380;28;20096;-74
2022/06/29 06:24:29;;;;;;;3.45;2.83;;;18.00;99.90;;;;;;5084169;28;20043;-75
2022/06/29 06:26:55;;;;;;;4.53;2.65;;;17.30;99.90;;;;;;5052940;28;20158;-76
2022/06/29 06:29:20;;;;;;;6.10;3.42;;;17.30;99.90;;;;;;4731683;28;9999989;-75
2022/06/29 06:31:46;;;;;;;4.50;2.72;;;17.40;99.90;;;;;;5086215;28;20063;-75
2022/06/29 06:34:12;;;;;;;6.38;3.25;;;17.50;99.90;;;;;;5066648;28;20119;-76
2022/06/29 06:36:38;;;;;;;5.82;2.40;;;17.50;99.90;;;;;;5047699;28;20032;-74
2022/06/29 06:39:03;;;;;;;5.53;2.53;;;18.50;99.90;;;;;;5050332;28;20050;-74
2022/06/29 06:41:29;;;;;;;4.57;3.65;;;18.30;99.90;;;;;;5082179;28;20040;-74
2022/06/29 06:43:57;;;;;;;7.00;2.92;;;17.70;99.90;;;;;;5047256;28;20075;-74
2022/06/29 06:46:23;;;;;;;4.13;3.15;;;17.80;99.90;;;;;;5065137;28;20040;-74
2022/06/29 06:48:51;;;;;;;3.97;2.40;;;17.80;99.90;;;;;;5048957;28;20085;-75
2022/06/29 06:51:24;;;;;;;4.18;2.85;;;17.90;99.90;;;;;;5063432;28;20111;-75
2022/06/29 06:53:50;;;;;;;3.60;2.60;;;18.00;99.90;;;;;;5060538;28;20687;-75
2022/06/29 06:56:16;;;;;;;1.88;1.70;;;18.00;99.90;;;;;;5047888;28;20036;-75
2022/06/29 06:58:42;;;;;;;8.90;6.38;;;18.10;99.90;;;;;;5062912;28;20635;-74
2022/06/29 07:01:10;;;;;;;6.18;2.50;;;18.10;99.90;;;;;;5081993;28;20090;-74
2022/06/29 07:03:36;;;;;;;7.25;3.47;;;18.20;99.90;;;;;;5079849;28;20070;-73
2022/06/29 07:06:22;;;;;;;4.03;2.30;;;18.30;99.90;;;;;;5062999;28;20043;-74
2022/06/29 07:08:49;;;;;;;2.63;1.83;;;18.40;99.90;;;;;;5047820;28;20397;-73
2022/06/29 07:11:15;;;;;;;3.90;1.50;;;18.50;99.90;;;;;;5066675;28;20054;-75
2022/06/29 07:13:41;;;;;;;58.90;4.57;;;18.60;99.90;;;;;;5060402;28;20123;-72
2022/06/29 07:16:06;;;;;;;22.08;2.80;;;18.70;99.90;;;;;;5064415;28;20044;-74
2022/06/29 07:18:33;;;;;;;9.10;1.70;;;18.80;99.90;;;;;;5085429;28;20532;-73
2022/06/29 07:21:00;;;;;;;4.05;1.45;;;18.80;99.90;;;;;;5080864;28;20105;-73
2022/06/29 07:23:27;;;;;;;5.82;1.60;;;18.90;99.90;;;;;;5068327;28;20490;-74
2022/06/29 07:25:53;;;;;;;2.75;0.85;;;19.10;99.90;;;;;;5079456;28;20068;-73
2022/06/29 07:28:19;;;;;;;8.38;1.20;;;19.00;99.90;;;;;;5085071;28;20074;-72
2022/06/29 07:30:45;;;;;;;25.05;2.13;;;19.10;99.90;;;;;;5075472;28;20562;-73
2022/06/29 07:33:10;;;;;;;3.30;0.88;;;19.20;99.90;;;;;;5086441;28;20047;-73
2022/06/29 07:35:36;;;;;;;6.15;1.20;;;19.30;99.90;;;;;;5065292;28;20075;-73
2022/06/29 07:38:02;;;;;;;3.22;1.15;;;19.30;99.90;;;;;;5090985;28;20120;-73
2022/06/29 07:40:27;;;;;;;3.90;1.17;;;19.40;99.90;;;;;;5089262;28;20043;-73
2022/06/29 07:42:53;;;;;;;5.60;1.23;;;19.40;99.90;;;;;;5073104;28;20052;-72
2022/06/29 07:45:19;;;;;;;2.05;1.15;;;19.60;99.90;;;;;;5052341;28;20140;-74
2022/06/29 07:47:45;;;;;;;3.00;1.13;;;20.50;99.90;;;;;;5074153;28;20486;-73
2022/06/29 07:50:12;;;;;;;1.63;0.70;;;19.70;99.90;;;;;;5073231;28;20555;-73
2022/06/29 07:52:38;;;;;;;4.13;0.80;;;19.80;99.90;;;;;;5056784;28;20044;-73
2022/06/29 07:55:04;;;;;;;2.88;1.23;;;19.90;99.90;;;;;;5072958;28;20093;-71
2022/06/29 07:57:30;;;;;;;5.30;1.00;;;19.90;99.90;;;;;;5090624;28;20632;-72
2022/06/29 07:59:56;;;;;;;4.10;0.82;;;20.00;99.90;;;;;;5071837;28;20060;-76
2022/06/29 08:02:21;;;;;;;4.78;1.23;;;20.10;99.90;;;;;;5074385;28;20058;-76
2022/06/29 08:04:47;;;;;;;6.05;0.95;;;20.10;99.90;;;;;;5073848;28;20086;-76
2022/06/29 08:07:12;;;;;;;3.92;0.70;;;20.20;99.90;;;;;;5075898;28;20044;-76
2022/06/29 08:09:38;;;;;;;105.05;9.40;;;20.80;99.90;;;;;;5075805;28;20062;-75
2022/06/29 08:12:04;;;;;;;53.15;9.05;;;20.30;99.90;;;;;;5074567;28;20105;-73
2022/06/29 08:14:30;;;;;;;16.00;3.30;;;20.50;99.90;;;;;;5074999;28;20399;-72
2022/06/29 08:16:55;;;;;;;375.08;30.35;;;20.70;99.90;;;;;;5074248;28;20055;-76
2022/06/29 08:19:21;;;;;;;4.18;1.10;;;20.40;99.90;;;;;;5075289;28;20465;-75
2022/06/29 08:21:47;;;;;;;1.02;0.70;;;21.00;99.90;;;;;;5091690;28;20417;-75
2022/06/29 08:24:13;;;;;;;3.75;1.00;;;20.90;99.90;;;;;;5075297;28;20080;-76
2022/06/29 08:26:38;;;;;;;268.58;19.50;;;20.90;99.90;;;;;;5068338;28;20391;-76
2022/06/29 08:29:04;;;;;;;6.28;1.50;;;21.00;99.90;;;;;;5093458;28;20200;-76
2022/06/29 08:31:30;;;;;;;4.28;0.93;;;21.10;99.90;;;;;;5075398;28;20459;-75
2022/06/29 08:33:56;;;;;;;275.60;26.45;;;21.10;99.90;;;;;;5073494;28;20544;-74
2022/06/29 08:36:22;;;;;;;44.47;5.45;;;21.20;99.90;;;;;;5075673;28;20089;-75
2022/06/29 08:38:48;;;;;;;3.22;1.33;;;21.30;99.90;;;;;;5056985;28;20043;-75
2022/06/29 08:41:15;;;;;;;2.40;0.80;;;21.30;99.90;;;;;;5094509;28;20486;-75
2022/06/29 08:43:42;;;;;;;4.90;1.08;;;21.30;99.90;;;;;;5075254;28;20048;-75
2022/06/29 08:46:11;;;;;;;1.90;0.90;;;21.30;99.90;;;;;;5089720;28;20052;-76
2022/06/29 08:48:36;;;;;;;3.38;1.00;;;21.40;99.90;;;;;;5055636;28;20478;-76
2022/06/29 08:51:03;;;;;;;3.17;1.00;;;21.40;99.90;;;;;;5069293;28;20040;-76
2022/06/29 08:53:29;;;;;;;6.28;0.90;;;21.40;99.90;;;;;;5071335;28;20486;-75
2022/06/29 08:55:55;;;;;;;400.77;34.03;;;21.40;99.90;;;;;;5090586;28;20042;-74
2022/06/29 08:58:23;;;;;;;10.13;1.83;;;21.50;99.90;;;;;;5068286;28;20048;-74
2022/06/29 09:00:49;;;;;;;7.10;1.90;;;21.60;99.90;;;;;;5055006;28;20101;-75
2022/06/29 09:03:18;;;;;;;2.65;0.80;;;21.70;99.90;;;;;;5069931;28;20168;-76
2022/06/29 09:05:54;;;;;;;4.93;0.82;;;21.70;99.90;;;;;;5090139;28;20050;-75
2022/06/29 09:08:21;;;;;;;455.38;38.50;;;21.70;99.90;;;;;;5072794;28;20110;-76
2022/06/29 09:10:47;;;;;;;131.02;9.57;;;21.90;99.90;;;;;;5090444;28;20059;-77
2022/06/29 09:13:24;;;;;;;7.50;2.05;;;22.00;99.90;;;;;;5068650;28;20044;-74
2022/06/29 09:15:57;;;;;;;3.40;1.00;;;22.10;99.90;;;;;;5070952;28;20044;-73
2022/06/29 09:18:23;;;;;;;1.73;0.82;;;22.10;99.90;;;;;;5089067;28;20040;-74
2022/06/29 09:20:54;;;;;;;2.60;1.33;;;22.20;99.90;;;;;;5070530;28;20051;-74
2022/06/29 09:23:20;;;;;;;7.40;1.30;;;22.30;99.90;;;;;;5070291;28;20040;-73
2022/06/29 09:25:46;;;;;;;4.15;1.10;;;22.30;99.90;;;;;;5065786;28;20055;-72
2022/06/29 09:28:38;;;;;;;17.10;1.50;;;22.40;99.90;;;;;;5068966;28;20296;-73
2022/06/29 09:31:06;;;;;;;10.48;7.05;;;22.50;99.90;;;;;;5062193;28;20059;-73
2022/06/29 09:33:32;;;;;;;14.65;2.30;;;22.70;99.90;;;;;;5068253;28;20510;-75
2022/06/29 09:36:17;;;;;;;6.82;1.35;;;22.70;99.90;;;;;;5071214;28;20188;-76
2022/06/29 09:38:43;;;;;;;2.88;0.80;;;23.00;99.90;;;;;;5088953;28;20495;-75
2022/06/29 09:41:09;;;;;;;22.90;2.50;;;23.00;99.90;;;;;;5053631;28;20044;-74
2022/06/29 09:43:37;;;;;;;16.75;2.38;;;23.10;99.90;;;;;;5070406;28;20465;-75
2022/06/29 09:46:04;;;;;;;7.63;1.50;;;23.20;99.90;;;;;;5070984;28;20032;-75
2022/06/29 09:48:32;;;;;;;5.60;1.13;;;23.20;99.90;;;;;;5090067;28;20089;-75
2022/06/29 09:50:58;;;;;;;1.95;0.90;;;23.30;99.90;;;;;;5069486;28;20106;-73
2022/06/29 09:53:36;;;;;;;4.53;1.30;;;23.30;99.90;;;;;;5070233;28;20044;-72
2022/06/29 09:56:04;;;;;;;1.95;1.30;;;23.30;99.90;;;;;;5066394;28;20044;-73
2022/06/29 09:58:40;;;;;;;4.38;1.05;;;23.40;99.90;;;;;;5053640;28;20491;-73
2022/06/29 10:03:55;;;;;;;42.63;3.38;;;23.50;99.90;;;;;;5087256;28;20357;-74
2022/06/29 10:06:21;;;;;;;143.50;15.23;;;23.60;99.90;;;;;;5088836;28;20032;-73
2022/06/29 10:08:47;;;;;;;6.32;1.27;;;23.60;99.90;;;;;;5070484;28;20372;-74
2022/06/29 10:14:13;;;;;;;355.48;30.85;;;23.70;99.90;;;;;;5069177;28;20047;-75
2022/06/29 10:16:53;;;;;;;8.45;1.60;;;23.90;99.90;;;;;;5070327;28;20032;-74
2022/06/29 10:19:53;;;;;;;6.30;1.30;;;23.90;99.90;;;;;;5089002;28;20039;-74
2022/06/29 10:22:19;;;;;;;3.35;0.73;;;24.00;99.90;;;;;;5040411;28;20048;-73
2022/06/29 10:25:05;;;;;;;13.00;1.80;;;24.10;99.90;;;;;;5034805;28;20081;-75
2022/06/29 10:27:31;;;;;;;3.85;0.85;;;24.20;99.90;;;;;;5068443;28;20055;-80
2022/06/29 10:30:23;;;;;;;3.40;0.82;;;24.20;99.70;;;;;;5054288;28;20055;-79
2022/06/29 10:32:50;;;;;;;3.03;1.10;;;24.40;99.20;;;;;;5068526;28;20050;-77
2022/06/29 10:35:17;;;;;;;2.55;0.77;;;24.50;98.90;;;;;;5068017;28;20523;-77
2022/06/29 10:37:51;;;;;;;13.32;2.05;;;24.60;98.70;;;;;;5069361;28;20044;-78
2022/06/29 10:40:23;;;;;;;82.05;6.25;;;24.70;98.30;;;;;;5085754;28;20048;-75
2022/06/29 10:43:07;;;;;;;11.43;1.30;;;24.80;97.20;;;;;;5068486;28;20483;-75
2022/06/29 10:45:39;;;;;;;96.68;7.60;;;24.90;96.60;;;;;;5068800;28;20044;-76
2022/06/29 10:48:07;;;;;;;5.72;0.95;;;24.80;96.30;;;;;;5051458;28;20040;-78
2022/06/29 10:50:35;;;;;;;7.05;0.85;;;24.80;96.20;;;;;;5065349;28;20109;-77
2022/06/29 10:53:06;;;;;;;26.17;2.15;;;24.80;95.80;;;;;;5082527;28;20048;-76
2022/06/29 10:55:34;;;;;;;0.93;0.77;;;24.80;95.40;;;;;;5068595;28;20119;-75
2022/06/29 10:58:01;;;;;;;22.77;1.60;;;24.80;95.60;;;;;;5066932;28;20867;-77
2022/06/29 11:00:28;;;;;;;96.22;5.20;;;24.90;95.40;;;;;;5067588;28;20109;-76
2022/06/29 11:02:54;;;;;;;6.50;1.35;;;25.00;95.10;;;;;;5064126;28;20072;-78
2022/06/29 11:05:20;;;;;;;8.38;3.00;;;25.00;94.80;;;;;;5067710;28;20071;-76
2022/06/29 11:13:27;;;;;;;5.18;1.25;;;25.30;94.90;;;;;;5066916;28;20518;-72
2022/06/29 11:15:55;;;;;;;3.33;0.82;;;25.50;94.40;;;;;;5065297;28;20059;-71
2022/06/29 11:18:29;;;;;;;7.20;1.25;;;25.50;93.40;;;;;;5066385;28;20451;-81
2022/06/29 11:21:02;;;;;;;3.35;0.95;;;25.50;92.70;;;;;;5099239;28;20052;-82
2022/06/29 11:23:30;;;;;;;4.07;1.08;;;25.60;92.60;;;;;;5068601;28;20047;-82
2022/06/29 11:25:56;;;;;;;25.67;1.75;;;25.70;91.80;;;;;;5102211;28;20052;-82
2022/06/29 11:28:35;;;;;;;7.18;1.00;;;25.80;92.00;;;;;;5069153;28;20075;-85
2022/06/29 11:31:09;;;;;;;10.05;1.30;;;25.90;92.70;;;;;;5082350;28;20058;-84
2022/06/29 11:33:37;;;;;;;1.58;0.55;;;26.00;91.60;;;;;;5084801;28;20039;-85
2022/06/29 11:36:10;;;;;;;2.15;1.00;;;26.00;91.90;;;;;;5083951;28;20181;-84
2022/06/29 11:38:40;;;;;;;16.35;0.98;;;26.20;91.80;;;;;;5055929;28;20125;-83
2022/06/29 11:44:30;;;;;;;16.33;1.75;;;26.40;91.10;;;;;;5082877;28;20496;-74
2022/06/29 11:46:56;;;;;;;8.15;1.08;;;26.60;90.80;;;;;;5068297;28;20036;-79
2022/06/29 11:49:36;;;;;;;12.07;1.10;;;26.60;89.70;;;;;;5050775;28;20035;-80
2022/06/29 11:52:05;;;;;;;28.02;2.58;;;26.80;90.30;;;;;;5072457;28;20117;-88
2022/06/29 11:54:46;;;;;;;14.65;1.45;;;26.90;88.20;;;;;;5056270;28;20723;-86
2022/06/29 11:57:15;;;;;;;6.03;1.05;;;27.00;87.40;;;;;;5068753;28;20037;-86
2022/06/29 11:59:43;;;;;;;7.15;1.25;;;27.00;88.10;;;;;;5052102;28;20068;-85
2022/06/29 12:02:13;;;;;;;8.50;0.88;;;27.10;86.90;;;;;;5051985;28;20093;-86
2022/06/29 12:04:41;;;;;;;10.30;1.23;;;27.20;84.20;;;;;;5069030;28;20042;-86
2022/06/29 12:07:19;;;;;;;7.47;0.63;;;27.30;82.40;;;;;;5069374;28;20036;-85
2022/06/29 12:09:45;;;;;;;5.28;0.60;;;27.50;82.30;;;;;;5051393;28;20043;-85
2022/06/29 12:12:14;;;;;;;4.60;1.13;;;27.60;82.00;;;;;;5085727;28;20047;-85
2022/06/29 12:14:40;;;;;;;2.58;1.00;;;27.70;81.10;;;;;;5069989;28;20067;-72
2022/06/29 12:17:07;;;;;;;3.83;0.90;;;27.80;80.10;;;;;;5086143;28;20046;-72
2022/06/29 12:19:33;;;;;;;1.75;0.80;;;27.90;80.90;;;;;;5086937;28;20044;-73
2022/06/29 12:21:59;;;;;;;4.38;0.90;;;28.00;81.40;;;;;;5085480;28;20040;-72
2022/06/29 12:24:26;;;;;;;20.90;1.35;;;28.00;81.10;;;;;;5055464;28;20390;-73
2022/06/29 12:26:52;;;;;;;3.13;1.02;;;28.00;80.10;;;;;;5085625;28;20164;-73
2022/06/29 12:29:18;;;;;;;10.00;1.67;;;27.90;80.80;;;;;;5081842;28;20051;-73
2022/06/29 12:31:44;;;;;;;1.23;0.82;;;27.90;79.70;;;;;;5071118;28;20164;-72
2022/06/29 12:34:11;;;;;;;4.35;1.08;;;27.90;80.10;;;;;;5089500;28;20475;-73
2022/06/29 12:36:37;;;;;;;21.30;2.05;;;27.90;80.40;;;;;;5072709;28;20032;-72
2022/06/29 12:39:04;;;;;;;61.55;3.67;;;27.90;80.20;;;;;;5070443;28;20069;-72
2022/06/29 12:41:30;;;;;;;198.18;21.52;;;27.90;80.40;;;;;;5071766;28;20092;-73
2022/06/29 12:43:56;;;;;;;21.60;1.95;;;28.00;81.10;;;;;;5072060;28;20047;-74
2022/06/29 12:46:21;;;;;;;15.45;2.20;;;28.00;80.20;;;;;;5069745;28;20036;-74
2022/06/29 12:48:47;;;;;;;30.20;2.13;;;28.00;81.00;;;;;;5071722;28;20399;-72
2022/06/29 12:51:13;;;;;;;15.32;2.47;;;28.10;81.40;;;;;;5089704;28;20127;-73
2022/06/29 12:53:39;;;;;;;1.42;1.10;;;28.10;80.40;;;;;;5088917;28;20043;-79
2022/06/29 12:56:05;;;;;;;3.45;1.38;;;28.10;79.80;;;;;;5087900;28;20028;-75
2022/06/29 12:58:31;;;;;;;3.25;1.30;;;28.10;79.80;;;;;;5089445;28;20048;-75
2022/06/29 13:00:57;;;;;;;4.85;1.65;;;28.20;80.10;;;;;;5054109;28;20144;-75
2022/06/29 13:03:23;;;;;;;4.45;1.55;;;28.30;80.80;;;;;;5066191;28;20250;-76